aviador You're here:

KPRO Decoded Metar

PERRY MUNI in IA, USA
Report Time2018-05-28 09:35:00
UTC Time2018-05-28 09:51:50
Flight Rules vfr VFR
WindCalm
Visibility9999 m
Phenomena:N/A
Clouds:N/A
Expected CloudBase > 1,600 ft AGL from Temp-Dew spread
CeilingNone
Temp21°C (ISA +8)
Dew Point17°C (78% RH)
QNH1013 hPa
Density Alt2,205 ft
Elevation1,010 ft
Report Wrong Elevation
Raw Report
KPRO 280935Z AUTO 00000KT 10SM CLR 21/17 A2992 RMK AO2
T02130174=

Extra information for KPRO:More info

Metar Taf Metar & Taf Last 4 Metars F.Rules Stats Wind Profile Meteogram Temp Stats Airport Information Weather charts Add Link Nearby VenuesMetar ALERT Operation Metar Decoded Social comments

AIRNAV info for KPRO